Aérodrome :
LOGIN :

S'inscrire | Disclaimer

   EN    FR    IT 

 










Légende :    VFR   VFR Marginal   IFR   IFR Intensif   IFR Très Intensif
Visi : 
Plafond : 
>= 8 km
>= 3000ft
5 à 8 km
1000 à 3000 ft
1500m à 5 km
500 à 1000 ft
800 à 1500m
200 à 500 ft
< 800m
< 200 ft
Symboles :   Orages  Brouillard  Fortes neiges  Fortes précipitations  Vent > 20 kt
SIGMETs :   Divers  Orages  Givrage  Turbulence  Onde Orograph.  Cendres Volcan.







- Altitude de l'aérodrome : 142 ft
- Code IATA : ALC


LEAL - Alicante

DERNIER METAR :
  • 142030Z 09005KT 9999 FEW015 27/23 Q1016 NOSIG

METARs EXPIRÉS :
  • 142000Z 08005KT 050V120 9999 FEW015 27/24 Q1016 NOSIG
  • 141930Z 06006KT 030V100 9999 FEW045 27/24 Q1016 NOSIG
  • 141900Z 08006KT CAVOK 27/24 Q1015 NOSIG
  • 141830Z 09008KT 050V110 CAVOK 27/23 Q1015 NOSIG
  • 141800Z 08011KT CAVOK 28/23 Q1015 NOSIG

TAF TAF LEAL
Valide du 14 à 18h jusqu'au 15 à 18h UTC


141700Z 1418/1518 09014KT 9999 FEW025 TX31/1512Z TN25/1505Z
BECMG 1418/1420 07005KT
PROB40
TEMPO 1424/1506 3000 TSRA SCT020 FEW025CB
BECMG 1510/1512 10010KT
Pas de NOTAMs connus pour ce terrain.



MET'MAP, la Météo Aéronautique d'un coup d'oeil ! - Copyright ORBIFLY Décembre 2007 - Disclaimer

ORBIFLY MET'MAP TEAM :

Programmation & Développement : Alexandra Zaïnal
Conception & Développement : Baudouin d'Aumeries
Co-Programmation & Développement : Marc-Olivier Méhu
Soutien technique & logistique : Manuel Goepfert

Contact : metmap@orbifly.com




SOURCES & CREDITS :

   NOAA